Time;durP1;ratioP1;P1;durP2;ratioP2;P2;SDS_P1;SDS_P2;PMS_P1;PMS_P2;Temp;Humidity;BMP_temperature;BMP_pressure;BME280_temperature;BME280_humidity;BME280_pressure;Samples;Min_cycle;Max_cycle;Signal;HPM_P1;HPM_P2
2022/07/26 00:01:21;;;;;;;14.52;7.53;;;19.20;99.90;;;;;;4974503;28;20027;-52
2022/07/26 00:03:48;;;;;;;11.43;6.45;;;19.20;99.90;;;;;;4974577;28;20406;-51
2022/07/26 00:06:14;;;;;;;7.80;6.38;;;19.20;99.90;;;;;;4958897;28;20034;-50
2022/07/26 00:08:40;;;;;;;10.63;6.38;;;19.20;99.90;;;;;;4974601;28;20533;-52
2022/07/26 00:11:06;;;;;;;10.73;6.32;;;19.20;99.90;;;;;;4974346;28;20039;-53
2022/07/26 00:13:33;;;;;;;9.55;6.45;;;19.30;99.90;;;;;;4974535;28;20062;-50
2022/07/26 00:15:59;;;;;;;14.00;5.85;;;19.20;99.90;;;;;;4973636;28;20399;-53
2022/07/26 00:18:26;;;;;;;12.07;5.97;;;19.20;99.90;;;;;;4974379;28;20169;-54
2022/07/26 00:20:52;;;;;;;12.18;6.35;;;19.20;99.90;;;;;;4973999;28;20073;-47
2022/07/26 00:23:20;;;;;;;10.15;5.97;;;19.20;99.90;;;;;;4974372;28;20041;-50
2022/07/26 00:25:46;;;;;;;11.77;6.63;;;19.20;99.90;;;;;;4974219;28;20041;-50
2022/07/26 00:28:12;;;;;;;12.48;7.05;;;19.10;99.90;;;;;;4974076;28;20034;-53
2022/07/26 00:30:38;;;;;;;10.73;7.10;;;19.10;99.90;;;;;;4972727;28;20038;-56
2022/07/26 00:33:05;;;;;;;9.73;6.70;;;19.10;99.90;;;;;;4974445;28;20122;-51
2022/07/26 00:35:30;;;;;;;19.45;7.05;;;19.10;99.90;;;;;;4972747;28;20023;-49
2022/07/26 00:37:57;;;;;;;13.77;6.68;;;19.10;99.90;;;;;;4974045;28;20105;-49
2022/07/26 00:40:22;;;;;;;10.57;6.53;;;19.00;99.90;;;;;;4974009;28;20089;-51
2022/07/26 00:42:48;;;;;;;9.50;6.13;;;19.10;99.90;;;;;;4973882;28;20023;-49
2022/07/26 00:45:15;;;;;;;11.50;6.82;;;19.00;99.90;;;;;;4973803;28;20026;-53
2022/07/26 00:47:41;;;;;;;13.02;7.03;;;19.00;99.90;;;;;;4974018;28;20023;-49
2022/07/26 00:50:10;;;;;;;9.45;7.43;;;19.10;99.90;;;;;;4973804;28;20526;-55
2022/07/26 00:52:36;;;;;;;9.60;6.82;;;19.00;99.90;;;;;;4973847;28;20054;-51
2022/07/26 00:55:03;;;;;;;11.65;6.20;;;19.10;99.90;;;;;;4973641;28;20041;-54
2022/07/26 00:57:29;;;;;;;12.43;5.82;;;19.10;99.90;;;;;;4973597;28;20023;-49
2022/07/26 00:59:55;;;;;;;13.68;6.82;;;19.10;99.90;;;;;;4973335;28;20019;-53
2022/07/26 01:02:21;;;;;;;10.00;5.78;;;19.20;99.90;;;;;;4973743;28;20172;-49
2022/07/26 01:04:47;;;;;;;10.95;6.95;;;19.20;99.90;;;;;;4973319;28;20038;-53
2022/07/26 01:07:14;;;;;;;9.70;5.93;;;19.30;99.90;;;;;;4973574;28;20027;-51
2022/07/26 01:09:40;;;;;;;11.35;6.88;;;19.20;99.90;;;;;;4973404;28;20105;-47
2022/07/26 01:12:06;;;;;;;12.18;6.80;;;19.20;99.90;;;;;;4973339;28;20133;-52
2022/07/26 01:14:32;;;;;;;14.90;6.90;;;19.10;99.90;;;;;;4973225;28;20444;-53
2022/07/26 01:16:57;;;;;;;10.35;6.82;;;19.10;99.90;;;;;;4973374;28;20058;-51
2022/07/26 01:19:23;;;;;;;13.30;7.15;;;19.10;99.90;;;;;;4973268;28;20630;-53
2022/07/26 01:21:50;;;;;;;11.05;7.05;;;19.10;99.90;;;;;;4973307;28;20075;-51
2022/07/26 01:24:16;;;;;;;13.40;7.15;;;19.10;99.90;;;;;;4973252;28;20430;-53
2022/07/26 01:26:42;;;;;;;11.02;7.10;;;19.10;99.90;;;;;;4973052;28;20034;-51
2022/07/26 01:29:08;;;;;;;22.27;7.13;;;19.10;99.90;;;;;;4972248;28;20125;-51
2022/07/26 01:31:34;;;;;;;12.05;6.43;;;19.10;99.90;;;;;;4973053;28;20058;-51
2022/07/26 01:33:59;;;;;;;11.23;6.65;;;19.20;99.90;;;;;;4973022;28;20023;-51
2022/07/26 01:36:25;;;;;;;11.70;7.53;;;19.20;99.90;;;;;;4973119;28;20046;-49
2022/07/26 01:38:51;;;;;;;10.80;7.07;;;19.20;99.90;;;;;;4973010;28;20030;-55
2022/07/26 01:41:17;;;;;;;9.48;7.15;;;19.20;99.90;;;;;;4972625;28;20023;-50
2022/07/26 01:43:42;;;;;;;12.68;7.32;;;19.10;99.90;;;;;;4972939;28;20077;-55
2022/07/26 01:46:09;;;;;;;9.65;7.47;;;19.10;99.90;;;;;;4973172;28;20074;-55
2022/07/26 01:48:35;;;;;;;17.58;7.93;;;19.20;99.90;;;;;;4972379;28;20034;-56
2022/07/26 01:51:01;;;;;;;10.52;6.30;;;19.20;99.90;;;;;;4972742;28;20059;-52
2022/07/26 01:53:27;;;;;;;12.52;7.45;;;19.10;99.90;;;;;;4972890;28;20697;-54
2022/07/26 01:55:53;;;;;;;11.88;7.38;;;19.10;99.90;;;;;;4972484;28;20031;-54
2022/07/26 01:58:19;;;;;;;16.63;9.07;;;19.10;99.90;;;;;;4972393;28;20101;-50
2022/07/26 02:00:45;;;;;;;13.77;7.63;;;19.10;99.90;;;;;;4972660;28;20019;-55
2022/07/26 02:03:10;;;;;;;16.88;8.13;;;19.10;99.90;;;;;;4972763;28;20438;-55
2022/07/26 02:05:36;;;;;;;10.77;7.78;;;19.00;99.90;;;;;;4972454;28;20027;-55
2022/07/26 02:08:02;;;;;;;9.88;6.90;;;19.00;99.90;;;;;;4972709;28;20041;-55
2022/07/26 02:13:12;;;;;;;12.00;7.82;;;19.00;99.90;;;;;;4972469;28;20034;-51
2022/07/26 02:15:38;;;;;;;11.43;9.00;;;18.90;99.90;;;;;;4972075;28;20023;-52
2022/07/26 02:18:04;;;;;;;12.52;8.30;;;18.90;99.90;;;;;;4972573;28;20455;-54
2022/07/26 02:20:32;;;;;;;14.48;8.43;;;19.00;99.90;;;;;;4972625;28;20143;-53
2022/07/26 02:22:59;;;;;;;11.82;8.77;;;19.00;99.90;;;;;;4972567;28;20015;-54
2022/07/26 02:25:24;;;;;;;16.05;9.13;;;19.00;99.90;;;;;;4972164;28;20438;-56
2022/07/26 02:27:50;;;;;;;14.45;8.80;;;19.00;99.90;;;;;;4972317;28;20081;-53
2022/07/26 02:30:16;;;;;;;13.80;9.02;;;18.90;99.90;;;;;;4972537;28;20098;-51
2022/07/26 02:32:42;;;;;;;14.85;7.82;;;19.00;99.90;;;;;;4972199;28;20077;-50
2022/07/26 02:35:08;;;;;;;12.30;8.52;;;19.00;99.90;;;;;;4972446;28;20060;-55
2022/07/26 02:37:34;;;;;;;15.75;8.27;;;19.00;99.90;;;;;;4972505;28;20602;-55
2022/07/26 02:40:01;;;;;;;12.85;8.85;;;19.00;99.90;;;;;;4973785;28;20030;-51
2022/07/26 02:42:27;;;;;;;10.45;6.53;;;19.00;99.90;;;;;;4976039;28;20054;-50
2022/07/26 02:44:53;;;;;;;11.63;6.88;;;19.10;99.90;;;;;;4976213;28;20081;-53
2022/07/26 02:47:18;;;;;;;14.60;8.90;;;19.20;99.90;;;;;;4976153;28;20471;-55
2022/07/26 02:49:44;;;;;;;11.85;7.70;;;19.10;99.90;;;;;;4975862;28;20023;-56
2022/07/26 02:52:10;;;;;;;15.75;7.85;;;19.10;99.90;;;;;;4974507;28;20635;-51
2022/07/26 02:54:36;;;;;;;15.38;7.32;;;19.10;99.90;;;;;;4976045;28;20143;-55
2022/07/26 02:57:01;;;;;;;19.05;7.68;;;19.10;99.90;;;;;;4974419;28;20058;-51
2022/07/26 02:59:27;;;;;;;12.15;7.80;;;19.20;99.90;;;;;;4975894;28;20054;-57
2022/07/26 03:01:53;;;;;;;12.68;7.72;;;19.20;99.90;;;;;;4975636;28;20422;-54
2022/07/26 03:04:18;;;;;;;11.50;6.85;;;19.10;99.90;;;;;;4976180;28;20065;-53
2022/07/26 03:06:44;;;;;;;11.52;8.43;;;19.10;99.90;;;;;;4974018;28;20037;-54
2022/07/26 03:09:10;;;;;;;15.65;7.55;;;19.10;99.90;;;;;;4975800;28;20035;-53
2022/07/26 03:11:35;;;;;;;9.02;7.80;;;19.10;99.90;;;;;;4975425;28;20392;-57
2022/07/26 03:14:01;;;;;;;11.45;8.02;;;19.10;99.90;;;;;;4975211;28;20051;-56
2022/07/26 03:16:27;;;;;;;13.90;8.35;;;19.10;99.90;;;;;;4975675;28;20023;-55
2022/07/26 03:18:52;;;;;;;10.77;7.05;;;19.10;99.90;;;;;;4975594;28;20022;-54
2022/07/26 03:21:18;;;;;;;9.85;6.32;;;19.00;99.90;;;;;;4975658;28;20027;-54
2022/07/26 03:23:44;;;;;;;11.00;6.90;;;19.10;99.90;;;;;;4975076;28;20031;-53
2022/07/26 03:26:10;;;;;;;8.85;6.72;;;19.20;99.90;;;;;;4975589;28;20031;-49
2022/07/26 03:28:35;;;;;;;12.48;7.03;;;19.20;99.90;;;;;;4976141;28;20113;-54
2022/07/26 03:31:01;;;;;;;11.05;7.65;;;19.20;99.90;;;;;;4975447;28;20086;-54
2022/07/26 03:33:28;;;;;;;12.05;7.22;;;19.10;99.90;;;;;;4974067;28;20447;-55
2022/07/26 03:35:54;;;;;;;15.55;8.13;;;19.10;99.90;;;;;;4975086;28;20030;-51
2022/07/26 03:38:19;;;;;;;13.10;7.50;;;19.00;99.90;;;;;;4974552;28;20030;-61
2022/07/26 03:40:45;;;;;;;15.00;7.63;;;18.90;99.90;;;;;;4973610;28;20042;-54
2022/07/26 03:43:11;;;;;;;15.13;7.57;;;18.90;99.90;;;;;;4974330;28;20027;-57
2022/07/26 03:45:36;;;;;;;10.05;6.22;;;19.00;99.90;;;;;;4973883;28;20026;-56
2022/07/26 03:48:02;;;;;;;10.82;6.90;;;19.00;99.90;;;;;;4974757;28;20054;-55
2022/07/26 03:50:28;;;;;;;17.80;8.38;;;19.00;99.90;;;;;;4974768;28;20041;-57
2022/07/26 03:52:53;;;;;;;12.13;7.93;;;19.00;99.90;;;;;;4973826;28;20442;-58
2022/07/26 03:58:03;;;;;;;14.30;7.72;;;18.90;99.90;;;;;;4974905;28;20046;-52
2022/07/26 04:00:29;;;;;;;9.70;7.57;;;18.80;99.90;;;;;;4974873;28;20058;-56
2022/07/26 04:02:55;;;;;;;19.02;8.48;;;18.90;99.90;;;;;;4975053;28;20113;-53
2022/07/26 04:05:20;;;;;;;12.68;7.63;;;18.90;99.90;;;;;;4973749;28;20019;-56
2022/07/26 04:07:46;;;;;;;12.45;7.80;;;19.00;99.90;;;;;;4974372;28;20031;-57
2022/07/26 04:10:14;;;;;;;11.32;8.10;;;19.00;99.90;;;;;;4974710;28;20505;-57
2022/07/26 04:12:40;;;;;;;8.50;6.15;;;19.00;99.90;;;;;;4974549;28;20034;-56
2022/07/26 04:15:06;;;;;;;8.27;6.00;;;19.10;99.90;;;;;;4974399;28;20019;-57
2022/07/26 04:17:39;;;;;;;8.25;5.95;;;19.20;99.90;;;;;;4974595;28;20105;-55
2022/07/26 04:20:06;;;;;;;11.35;7.10;;;19.30;99.90;;;;;;4974371;28;20093;-55
2022/07/26 04:22:34;;;;;;;13.15;7.38;;;19.30;99.90;;;;;;4972969;28;20062;-53
2022/07/26 04:25:00;;;;;;;7.57;5.97;;;19.20;99.90;;;;;;4974228;28;20090;-55
2022/07/26 04:27:26;;;;;;;12.30;7.57;;;19.30;99.90;;;;;;4974247;28;20054;-58
2022/07/26 04:29:51;;;;;;;8.07;6.38;;;19.20;99.90;;;;;;4974195;28;20070;-56
2022/07/26 04:32:17;;;;;;;17.25;6.82;;;19.20;99.90;;;;;;4973923;28;20130;-53
2022/07/26 04:34:43;;;;;;;19.67;7.55;;;19.20;99.90;;;;;;4973001;28;20034;-51
2022/07/26 04:37:08;;;;;;;10.40;6.65;;;19.20;99.90;;;;;;4973671;28;20030;-55
2022/07/26 04:39:34;;;;;;;7.85;6.30;;;19.30;99.90;;;;;;4973435;28;20026;-55
2022/07/26 04:42:00;;;;;;;9.40;6.00;;;19.30;99.90;;;;;;4973273;28;20039;-58
2022/07/26 04:44:25;;;;;;;11.18;6.45;;;19.40;99.90;;;;;;4973468;28;20035;-56
2022/07/26 04:46:51;;;;;;;13.18;6.68;;;19.50;99.90;;;;;;4972831;28;20031;-57
2022/07/26 04:49:17;;;;;;;7.78;5.53;;;19.50;99.90;;;;;;4974098;28;20042;-54
2022/07/26 04:51:42;;;;;;;13.30;6.20;;;19.40;99.90;;;;;;4973304;28;20035;-57
2022/07/26 04:54:08;;;;;;;11.27;7.35;;;19.50;99.90;;;;;;4973880;28;20046;-54
2022/07/26 04:56:33;;;;;;;9.75;6.50;;;19.50;99.90;;;;;;4973478;28;20054;-53
2022/07/26 04:58:59;;;;;;;13.30;8.18;;;19.50;99.90;;;;;;4973275;28;20497;-56
2022/07/26 05:01:25;;;;;;;7.78;5.97;;;19.60;99.90;;;;;;4973649;28;20027;-53
2022/07/26 05:03:50;;;;;;;7.55;6.10;;;19.60;99.90;;;;;;4973424;28;20030;-53
2022/07/26 05:06:16;;;;;;;8.57;5.57;;;19.60;99.90;;;;;;4973563;28;20110;-53
2022/07/26 05:08:43;;;;;;;7.90;5.63;;;19.70;99.90;;;;;;4973486;28;20378;-55
2022/07/26 05:11:09;;;;;;;13.40;6.00;;;19.80;99.90;;;;;;4972213;28;20501;-55
2022/07/26 05:13:34;;;;;;;10.70;6.55;;;19.90;99.90;;;;;;4973406;28;20035;-52
2022/07/26 05:16:00;;;;;;;9.63;6.85;;;19.80;99.90;;;;;;4973458;28;20481;-56
2022/07/26 05:18:28;;;;;;;12.05;5.22;;;19.90;99.90;;;;;;4973450;28;20057;-52
2022/07/26 05:20:53;;;;;;;10.68;6.45;;;19.90;99.90;;;;;;4973242;28;20076;-56
2022/07/26 05:23:19;;;;;;;8.20;6.13;;;20.00;99.90;;;;;;4972123;28;20118;-54
2022/07/26 05:25:45;;;;;;;10.32;6.57;;;20.00;99.90;;;;;;4973201;28;20031;-56
2022/07/26 05:28:11;;;;;;;9.13;5.95;;;19.90;99.90;;;;;;4973130;28;20035;-53
2022/07/26 05:30:37;;;;;;;14.32;7.75;;;19.90;99.90;;;;;;4973263;28;20478;-51
2022/07/26 05:33:02;;;;;;;13.05;8.00;;;19.90;99.90;;;;;;4973037;28;20586;-51
2022/07/26 05:35:28;;;;;;;16.90;7.10;;;19.80;99.90;;;;;;4973029;28;20489;-52
2022/07/26 05:37:54;;;;;;;7.43;6.55;;;19.90;99.90;;;;;;4972948;28;20030;-54
2022/07/26 05:40:19;;;;;;;9.23;6.35;;;19.90;99.90;;;;;;4973220;28;20054;-54
2022/07/26 05:42:45;;;;;;;11.00;6.45;;;20.10;99.90;;;;;;4972836;28;20035;-55
2022/07/26 05:45:11;;;;;;;11.27;6.28;;;20.10;99.90;;;;;;4971756;28;20039;-55
2022/07/26 05:47:37;;;;;;;9.63;5.75;;;20.10;99.90;;;;;;4972859;28;20035;-54
2022/07/26 05:50:04;;;;;;;10.98;6.35;;;20.10;99.90;;;;;;4972833;28;20038;-53
2022/07/26 05:52:30;;;;;;;15.25;6.50;;;20.10;99.90;;;;;;4971732;28;20043;-53
2022/07/26 05:54:56;;;;;;;12.45;6.68;;;20.10;99.90;;;;;;4972868;28;20025;-54
2022/07/26 05:57:21;;;;;;;10.13;6.55;;;20.20;99.90;;;;;;4972198;28;20060;-52
2022/07/26 05:59:47;;;;;;;12.07;5.85;;;20.20;99.90;;;;;;4972751;28;20026;-53
2022/07/26 06:02:13;;;;;;;7.95;5.82;;;20.20;99.90;;;;;;4972416;28;20414;-54
2022/07/26 06:04:38;;;;;;;6.25;5.25;;;20.20;99.90;;;;;;4972706;28;20022;-53
2022/07/26 06:07:04;;;;;;;8.55;5.45;;;20.30;99.90;;;;;;4972831;28;20039;-52
2022/07/26 06:09:30;;;;;;;8.30;5.30;;;20.30;99.90;;;;;;4971486;28;20023;-54
2022/07/26 06:11:56;;;;;;;8.85;4.97;;;20.10;99.90;;;;;;4972442;28;20039;-52
2022/07/26 06:14:21;;;;;;;6.95;5.68;;;20.10;99.90;;;;;;4972285;28;20031;-52
2022/07/26 06:16:47;;;;;;;6.43;4.53;;;20.20;99.90;;;;;;4972398;28;20034;-55
2022/07/26 06:19:13;;;;;;;10.10;5.05;;;20.40;99.90;;;;;;4971167;28;20011;-53
2022/07/26 06:21:39;;;;;;;10.10;4.93;;;20.30;99.90;;;;;;4972584;28;20027;-53
2022/07/26 06:24:05;;;;;;;5.38;4.20;;;20.20;99.90;;;;;;4972761;28;20517;-55
2022/07/26 06:26:30;;;;;;;6.10;4.90;;;20.40;99.90;;;;;;4972003;28;20039;-51
2022/07/26 06:28:56;;;;;;;6.90;4.57;;;20.50;99.90;;;;;;4972384;28;20067;-52
2022/07/26 06:31:22;;;;;;;8.90;4.80;;;20.60;99.90;;;;;;4972608;28;20027;-53
2022/07/26 06:33:47;;;;;;;7.78;5.38;;;20.60;99.90;;;;;;4972507;28;20035;-51
2022/07/26 06:36:13;;;;;;;10.32;3.97;;;20.60;99.90;;;;;;4972315;28;20081;-54
2022/07/26 06:38:39;;;;;;;9.52;4.50;;;20.80;99.90;;;;;;4972137;28;20513;-54
2022/07/26 06:41:04;;;;;;;6.85;4.40;;;20.90;99.90;;;;;;4970310;28;20035;-53
2022/07/26 06:43:30;;;;;;;5.32;4.25;;;21.00;99.90;;;;;;4972085;28;20362;-50
2022/07/26 06:45:56;;;;;;;11.75;5.47;;;21.00;99.90;;;;;;4972128;28;20108;-55
2022/07/26 06:48:21;;;;;;;6.88;3.97;;;21.00;99.90;;;;;;4972155;28;20027;-52
2022/07/26 06:50:47;;;;;;;8.82;4.25;;;20.80;99.90;;;;;;4971944;28;20098;-54
2022/07/26 06:53:13;;;;;;;6.97;4.47;;;20.90;99.90;;;;;;4972173;28;20085;-55
2022/07/26 06:55:39;;;;;;;6.38;4.25;;;21.00;99.90;;;;;;4972313;28;20023;-57
2022/07/26 06:58:05;;;;;;;8.52;3.83;;;21.10;99.90;;;;;;4971821;28;20027;-55
2022/07/26 07:00:31;;;;;;;7.63;3.25;;;21.00;99.90;;;;;;4972162;28;20102;-49
2022/07/26 07:02:56;;;;;;;7.90;4.40;;;21.00;99.90;;;;;;4972159;28;20363;-51
2022/07/26 07:05:22;;;;;;;5.53;3.50;;;21.00;99.90;;;;;;4972296;28;20525;-51
2022/07/26 07:07:48;;;;;;;7.10;4.45;;;21.00;99.90;;;;;;4972325;28;20026;-55
2022/07/26 07:10:13;;;;;;;7.90;4.70;;;20.90;99.90;;;;;;4972315;28;20027;-52
2022/07/26 07:12:40;;;;;;;4.88;3.67;;;21.10;99.90;;;;;;4971875;28;20081;-55
2022/07/26 07:15:06;;;;;;;6.82;4.00;;;21.20;99.90;;;;;;4972179;28;20031;-51
2022/07/26 07:17:33;;;;;;;4.28;3.80;;;21.20;99.90;;;;;;4971960;28;20050;-55
2022/07/26 07:19:59;;;;;;;6.25;3.35;;;21.30;99.90;;;;;;4972061;28;20684;-53
2022/07/26 07:22:25;;;;;;;14.68;4.15;;;21.40;99.90;;;;;;4972169;28;20110;-55
2022/07/26 07:24:51;;;;;;;6.32;4.28;;;21.50;99.90;;;;;;4972339;28;20066;-54
2022/07/26 07:27:16;;;;;;;8.05;4.40;;;21.90;99.90;;;;;;4973849;28;20143;-56
2022/07/26 07:29:42;;;;;;;7.40;4.25;;;22.00;99.90;;;;;;4975366;28;20038;-54
2022/07/26 07:32:08;;;;;;;5.78;4.78;;;21.90;99.90;;;;;;4975063;28;20031;-58
2022/07/26 07:34:33;;;;;;;6.85;4.07;;;22.00;99.90;;;;;;4975429;28;20030;-53
2022/07/26 07:36:59;;;;;;;8.43;4.32;;;22.30;99.90;;;;;;4975422;28;20038;-52
2022/07/26 07:39:25;;;;;;;4.68;4.28;;;22.30;99.90;;;;;;4975635;28;20038;-57
2022/07/26 07:41:50;;;;;;;5.50;4.05;;;22.50;99.90;;;;;;4975036;28;20105;-55
2022/07/26 07:44:16;;;;;;;4.22;3.47;;;22.70;99.90;;;;;;4974576;28;20421;-52
2022/07/26 07:46:42;;;;;;;4.07;3.42;;;22.70;99.90;;;;;;4974897;28;20034;-56
2022/07/26 07:49:09;;;;;;;7.65;4.43;;;22.90;99.90;;;;;;4975133;28;20423;-54
2022/07/26 07:51:35;;;;;;;5.93;3.92;;;22.90;99.90;;;;;;4974053;28;20470;-53
2022/07/26 07:54:01;;;;;;;5.22;4.40;;;22.70;99.90;;;;;;4974783;28;20046;-52
2022/07/26 07:56:27;;;;;;;6.00;4.35;;;22.70;99.90;;;;;;4975064;28;20022;-52
2022/07/26 07:58:52;;;;;;;4.13;3.50;;;22.70;99.90;;;;;;4975036;28;20031;-53
2022/07/26 08:01:18;;;;;;;4.85;3.55;;;22.60;99.90;;;;;;4974646;28;20053;-53
2022/07/26 08:03:44;;;;;;;5.28;3.63;;;22.80;99.90;;;;;;4974749;28;20031;-54
2022/07/26 08:06:10;;;;;;;4.68;3.70;;;22.70;99.90;;;;;;4974968;28;20029;-55
2022/07/26 08:08:37;;;;;;;6.05;3.80;;;22.90;99.90;;;;;;4974921;28;20054;-56
2022/07/26 08:11:04;;;;;;;6.82;3.60;;;22.70;99.90;;;;;;4974597;28;20038;-57
2022/07/26 08:13:30;;;;;;;8.35;3.85;;;22.70;99.90;;;;;;4974738;28;20441;-53
2022/07/26 08:15:56;;;;;;;6.20;3.35;;;22.60;99.90;;;;;;4974487;28;20081;-54
2022/07/26 08:18:22;;;;;;;7.88;3.75;;;22.50;99.90;;;;;;4974688;28;20065;-56
2022/07/26 08:20:51;;;;;;;8.65;4.28;;;22.30;99.90;;;;;;4974444;28;20031;-55
2022/07/26 08:23:18;;;;;;;6.97;4.05;;;22.20;99.90;;;;;;4974544;28;20026;-54
2022/07/26 08:25:44;;;;;;;6.00;4.32;;;22.70;99.90;;;;;;4974108;28;20023;-54
2022/07/26 08:28:10;;;;;;;6.47;3.92;;;22.60;99.90;;;;;;4974471;28;20030;-55
2022/07/26 08:30:36;;;;;;;4.43;4.03;;;22.70;99.90;;;;;;4974346;28;20027;-55
2022/07/26 08:33:01;;;;;;;8.18;4.43;;;22.50;99.90;;;;;;4974231;28;20053;-56
2022/07/26 08:35:28;;;;;;;5.03;3.80;;;22.60;99.90;;;;;;4960299;28;20111;-50
2022/07/26 08:37:54;;;;;;;7.53;4.28;;;22.70;99.90;;;;;;4963269;28;20038;-54
2022/07/26 08:40:20;;;;;;;5.78;4.00;;;22.50;99.90;;;;;;4947733;28;20039;-52
2022/07/26 08:42:51;;;;;;;7.65;4.10;;;22.60;99.90;;;;;;4942680;28;20491;-55
2022/07/26 08:45:27;;;;;;;4.53;3.60;;;22.70;99.90;;;;;;4962723;28;20031;-52
2022/07/26 08:47:54;;;;;;;7.75;4.88;;;22.50;99.90;;;;;;4963039;28;20028;-53
2022/07/26 08:50:20;;;;;;;9.02;4.30;;;22.50;99.90;;;;;;4963697;28;20039;-54
2022/07/26 08:52:46;;;;;;;10.02;3.97;;;22.60;99.90;;;;;;4962410;28;20035;-55
2022/07/26 08:55:17;;;;;;;8.43;3.75;;;22.70;99.90;;;;;;4946774;28;20375;-51
2022/07/26 08:58:23;;;;;;;4.97;4.10;;;22.60;99.90;;;;;;4943414;28;20471;-53
2022/07/26 09:01:03;;;;;;;11.00;4.03;;;22.60;99.90;;;;;;4944120;28;22413;-55
2022/07/26 09:03:30;;;;;;;6.45;3.90;;;22.80;99.90;;;;;;4961998;28;20505;-54
2022/07/26 09:05:59;;;;;;;3.78;3.47;;;23.10;99.90;;;;;;4960509;28;20089;-51
2022/07/26 09:08:28;;;;;;;5.00;3.80;;;23.40;99.90;;;;;;4943750;28;20023;-51
2022/07/26 09:10:55;;;;;;;4.97;3.72;;;23.10;99.90;;;;;;4942655;28;20038;-57
2022/07/26 09:13:22;;;;;;;6.28;3.63;;;23.20;99.90;;;;;;4961534;28;20390;-53
2022/07/26 09:16:06;;;;;;;6.03;4.05;;;23.30;99.90;;;;;;4963140;28;20023;-55
2022/07/26 09:18:32;;;;;;;4.57;4.07;;;23.10;99.90;;;;;;4962559;28;20025;-50
2022/07/26 09:20:58;;;;;;;6.53;4.45;;;23.00;99.90;;;;;;4962986;28;20038;-53
2022/07/26 09:23:23;;;;;;;8.90;4.57;;;22.90;99.90;;;;;;4956675;28;20035;-54
2022/07/26 09:25:49;;;;;;;5.95;3.72;;;22.80;99.90;;;;;;4943800;28;20035;-56
2022/07/26 09:28:30;;;;;;;10.65;4.10;;;22.80;99.90;;;;;;4942862;28;20082;-53
2022/07/26 09:31:01;;;;;;;8.13;4.32;;;22.60;99.90;;;;;;4961130;28;20043;-51
2022/07/26 09:33:48;;;;;;;6.10;4.20;;;22.70;99.90;;;;;;4954028;28;20031;-57
2022/07/26 09:36:15;;;;;;;9.82;4.22;;;23.00;99.90;;;;;;4961857;28;20042;-53
2022/07/26 09:38:46;;;;;;;12.98;4.05;;;23.20;99.90;;;;;;4943765;28;20082;-55
2022/07/26 09:41:36;;;;;;;8.77;3.97;;;23.10;99.90;;;;;;4961962;28;20030;-53
2022/07/26 09:44:18;;;;;;;9.32;4.28;;;23.10;99.90;;;;;;4961724;28;20439;-56
2022/07/26 09:46:56;;;;;;;9.30;4.28;;;23.20;99.90;;;;;;4962336;28;20038;-57
2022/07/26 09:49:23;;;;;;;6.22;4.50;;;23.30;99.90;;;;;;4961811;28;20050;-58
2022/07/26 09:51:53;;;;;;;12.20;4.40;;;23.10;99.90;;;;;;4962027;28;20035;-54
2022/07/26 09:54:28;;;;;;;6.13;4.43;;;23.30;99.90;;;;;;4944841;28;20098;-52
2022/07/26 09:56:53;;;;;;;5.10;3.85;;;23.30;99.90;;;;;;4960774;28;20035;-58
2022/07/26 09:59:22;;;;;;;7.97;4.43;;;23.20;99.90;;;;;;4961879;28;20541;-53
2022/07/26 10:01:49;;;;;;;7.80;4.05;;;23.30;99.90;;;;;;4961774;28;20451;-54
2022/07/26 10:04:16;;;;;;;4.80;4.30;;;23.10;99.90;;;;;;4961134;28;20352;-51
2022/07/26 10:06:43;;;;;;;5.20;4.10;;;23.10;99.90;;;;;;4950880;28;20031;-53
2022/07/26 10:09:09;;;;;;;9.93;4.68;;;23.40;99.90;;;;;;4944513;28;20069;-55
2022/07/26 10:11:48;;;;;;;6.53;4.03;;;23.10;99.90;;;;;;4941739;28;20047;-57
2022/07/26 10:14:44;;;;;;;6.03;4.00;;;23.10;99.90;;;;;;4942551;28;20034;-54
2022/07/26 10:17:29;;;;;;;6.43;3.90;;;23.30;99.90;;;;;;4941747;28;20039;-53
2022/07/26 10:20:09;;;;;;;7.53;3.88;;;23.40;99.90;;;;;;4943224;28;20377;-51
2022/07/26 10:22:49;;;;;;;6.80;4.45;;;23.10;99.90;;;;;;4943531;28;20036;-54
2022/07/26 10:25:17;;;;;;;7.50;4.10;;;22.80;99.90;;;;;;4943726;28;20024;-56
2022/07/26 10:27:44;;;;;;;7.57;3.78;;;23.00;99.90;;;;;;4943444;28;20415;-55
2022/07/26 10:30:19;;;;;;;6.63;3.95;;;22.70;99.90;;;;;;4943530;28;20039;-57
2022/07/26 10:32:44;;;;;;;8.00;4.32;;;22.80;99.90;;;;;;4942707;28;20031;-53
2022/07/26 10:35:31;;;;;;;8.02;3.95;;;22.90;99.90;;;;;;4942422;28;20038;-53
2022/07/26 10:37:59;;;;;;;6.25;3.60;;;23.00;99.90;;;;;;4942894;28;20027;-55
2022/07/26 10:40:29;;;;;;;5.45;3.78;;;22.70;99.90;;;;;;4942931;28;20110;-54
2022/07/26 10:43:16;;;;;;;7.47;3.58;;;22.70;99.90;;;;;;4944731;28;20031;-52
2022/07/26 10:45:42;;;;;;;4.70;3.35;;;22.70;99.90;;;;;;4942871;28;20043;-54
2022/07/26 10:48:17;;;;;;;5.25;3.72;;;22.70;99.90;;;;;;4942155;28;20554;-54
2022/07/26 10:50:51;;;;;;;5.28;3.70;;;22.70;99.90;;;;;;4942840;28;20046;-52
2022/07/26 10:53:23;;;;;;;8.27;3.90;;;22.70;99.90;;;;;;4942404;28;20135;-55
2022/07/26 10:55:57;;;;;;;7.95;3.53;;;22.90;99.90;;;;;;4942411;28;20023;-53
2022/07/26 10:58:24;;;;;;;5.60;3.30;;;23.10;99.90;;;;;;4943720;28;20535;-53
2022/07/26 11:01:03;;;;;;;5.72;3.67;;;23.00;99.90;;;;;;4953484;28;20030;-53
2022/07/26 11:03:36;;;;;;;7.80;3.30;;;22.60;99.90;;;;;;4975994;28;20015;-55
2022/07/26 11:06:13;;;;;;;5.82;3.28;;;22.70;99.90;;;;;;4975119;28;20967;-55
2022/07/26 11:08:40;;;;;;;7.60;3.13;;;22.80;99.90;;;;;;4975610;28;20118;-57
2022/07/26 11:11:05;;;;;;;6.55;2.97;;;22.90;99.90;;;;;;4975728;28;20027;-56
2022/07/26 11:13:33;;;;;;;7.63;4.10;;;22.90;99.90;;;;;;4975927;28;20355;-55
2022/07/26 11:16:01;;;;;;;4.88;3.58;;;22.80;99.90;;;;;;4975848;28;20888;-56
2022/07/26 11:18:31;;;;;;;8.07;4.10;;;22.60;99.90;;;;;;4975997;28;20015;-53
2022/07/26 11:21:09;;;;;;;8.27;3.67;;;22.60;99.90;;;;;;4975467;28;20482;-55
2022/07/26 11:23:36;;;;;;;4.20;3.13;;;22.60;99.90;;;;;;4975606;28;20035;-57
2022/07/26 11:26:09;;;;;;;16.65;5.57;;;23.10;99.90;;;;;;4975577;28;20116;-53
2022/07/26 11:29:12;;;;;;;5.47;3.33;;;23.30;99.90;;;;;;4975720;28;20050;-55
2022/07/26 11:31:46;;;;;;;3.08;2.83;;;23.30;99.90;;;;;;4975545;28;20027;-56
2022/07/26 11:34:21;;;;;;;7.20;3.50;;;23.40;99.90;;;;;;4974299;28;20402;-54
2022/07/26 11:36:48;;;;;;;8.75;4.00;;;23.40;99.90;;;;;;4970223;28;20167;-54
2022/07/26 11:39:25;;;;;;;6.45;3.95;;;23.40;99.90;;;;;;4946131;28;20146;-56
2022/07/26 11:42:01;;;;;;;7.80;3.72;;;23.30;99.90;;;;;;4962876;28;22677;-53
2022/07/26 11:44:28;;;;;;;7.05;3.80;;;23.20;99.90;;;;;;4948995;28;20047;-54
2022/07/26 11:46:56;;;;;;;9.20;3.83;;;23.40;99.90;;;;;;4949014;28;20053;-53
2022/07/26 11:49:29;;;;;;;7.75;3.80;;;23.40;99.90;;;;;;4951578;28;20070;-55
2022/07/26 11:52:02;;;;;;;5.57;4.13;;;23.30;99.90;;;;;;4953750;28;20035;-52
2022/07/26 11:54:30;;;;;;;5.40;4.18;;;23.20;99.90;;;;;;4947181;28;20058;-57
2022/07/26 11:57:05;;;;;;;5.60;3.35;;;23.10;99.90;;;;;;4945329;28;20027;-53
2022/07/26 11:59:33;;;;;;;4.60;3.80;;;23.00;99.90;;;;;;4945246;28;20032;-52
2022/07/26 12:02:01;;;;;;;6.70;4.22;;;23.00;99.90;;;;;;4943119;28;20565;-54
2022/07/26 12:04:43;;;;;;;9.05;4.57;;;23.00;99.90;;;;;;4945644;28;20756;-56
2022/07/26 12:07:10;;;;;;;11.60;4.45;;;22.90;99.90;;;;;;4944517;28;20043;-52
2022/07/26 12:09:41;;;;;;;5.80;4.00;;;22.90;99.90;;;;;;4945183;28;20047;-56
2022/07/26 12:12:31;;;;;;;9.65;5.05;;;22.90;99.90;;;;;;4943912;28;20035;-55
2022/07/26 12:15:03;;;;;;;5.30;4.10;;;22.90;99.90;;;;;;4944588;28;20035;-51
2022/07/26 12:17:29;;;;;;;6.18;3.90;;;22.70;99.90;;;;;;4944431;28;20377;-52
2022/07/26 12:19:57;;;;;;;4.82;3.67;;;22.70;99.90;;;;;;4944854;28;20027;-53
2022/07/26 12:22:23;;;;;;;7.40;4.15;;;22.60;99.90;;;;;;4946173;28;20030;-54
2022/07/26 12:24:57;;;;;;;7.72;3.97;;;23.00;99.90;;;;;;4948522;28;20039;-52
2022/07/26 12:27:28;;;;;;;4.60;3.92;;;23.10;99.90;;;;;;4955062;29;20046;-53
2022/07/26 12:30:02;;;;;;;9.63;4.05;;;23.40;99.90;;;;;;4967727;28;20548;-55
2022/07/26 12:32:32;;;;;;;8.27;3.38;;;23.60;99.90;;;;;;4973208;28;20117;-54
2022/07/26 12:35:07;;;;;;;5.55;3.60;;;23.70;99.90;;;;;;4974204;28;20053;-55
2022/07/26 12:37:37;;;;;;;6.00;3.50;;;23.90;99.90;;;;;;4974405;28;20027;-51
2022/07/26 12:40:17;;;;;;;6.00;3.70;;;23.80;99.90;;;;;;4973981;28;20035;-53
2022/07/26 12:42:59;;;;;;;12.02;3.15;;;23.80;99.90;;;;;;4974081;28;20034;-52
2022/07/26 12:45:26;;;;;;;9.43;3.70;;;23.50;99.90;;;;;;4974101;28;20027;-52
2022/07/26 12:47:54;;;;;;;7.32;3.75;;;23.30;99.90;;;;;;4974763;28;20022;-54
2022/07/26 12:50:21;;;;;;;12.00;3.97;;;23.20;99.90;;;;;;4974024;28;20479;-55
2022/07/26 12:52:50;;;;;;;6.07;3.92;;;23.20;99.90;;;;;;4973910;28;20047;-55